Time;durP1;ratioP1;P1;durP2;ratioP2;P2;SDS_P1;SDS_P2;PMS_P1;PMS_P2;Temp;Humidity;BMP_temperature;BMP_pressure;BME280_temperature;BME280_humidity;BME280_pressure;Samples;Min_cycle;Max_cycle;Signal;HPM_P1;HPM_P2
2023/07/30 00:01:51;;;;;;;3.25;2.40;;;17.10;99.90;;;;;;5088828;28;20483;-47
2023/07/30 00:04:17;;;;;;;4.00;2.30;;;17.00;99.90;;;;;;5088716;28;20040;-46
2023/07/30 00:06:42;;;;;;;2.80;2.22;;;17.10;99.90;;;;;;5088959;28;20062;-48
2023/07/30 00:09:07;;;;;;;3.55;2.53;;;17.00;99.90;;;;;;5088592;28;20028;-45
2023/07/30 00:11:33;;;;;;;3.83;2.20;;;17.10;99.90;;;;;;5088661;28;20068;-47
2023/07/30 00:13:58;;;;;;;3.38;2.88;;;17.10;99.90;;;;;;5088479;28;20028;-49
2023/07/30 00:16:26;;;;;;;4.18;2.80;;;17.10;99.90;;;;;;5088587;28;20095;-49
2023/07/30 00:18:51;;;;;;;7.78;2.50;;;17.10;99.90;;;;;;5070636;28;20094;-51
2023/07/30 00:21:17;;;;;;;2.92;2.42;;;17.10;99.90;;;;;;5088702;28;20032;-46
2023/07/30 00:23:42;;;;;;;3.08;2.38;;;17.10;99.90;;;;;;5088459;28;20366;-46
2023/07/30 00:26:08;;;;;;;2.58;2.33;;;17.10;99.90;;;;;;5088908;28;20024;-47
2023/07/30 00:28:33;;;;;;;3.00;2.30;;;17.20;99.90;;;;;;5088548;28;20571;-49
2023/07/30 00:30:59;;;;;;;2.70;2.28;;;17.20;99.90;;;;;;5088773;28;20081;-48
2023/07/30 00:33:24;;;;;;;6.97;2.67;;;17.10;99.90;;;;;;5091122;28;20028;-48
2023/07/30 00:35:53;;;;;;;3.05;2.50;;;17.20;99.90;;;;;;5092261;28;20020;-47
2023/07/30 00:38:19;;;;;;;3.38;2.58;;;17.20;99.90;;;;;;5092238;28;20415;-46
2023/07/30 00:40:45;;;;;;;3.33;2.00;;;17.20;99.90;;;;;;5092264;28;20466;-46
2023/07/30 00:43:10;;;;;;;2.42;2.00;;;17.30;99.90;;;;;;5091769;28;20035;-47
2023/07/30 00:45:38;;;;;;;2.85;2.08;;;17.30;99.90;;;;;;5092246;28;20031;-47
2023/07/30 00:48:04;;;;;;;2.40;2.20;;;17.30;99.90;;;;;;5092320;28;20099;-47
2023/07/30 00:50:30;;;;;;;4.75;2.22;;;17.40;99.90;;;;;;5091796;28;20052;-46
2023/07/30 00:52:56;;;;;;;4.35;2.17;;;17.30;99.90;;;;;;5091811;28;20026;-47
2023/07/30 00:55:21;;;;;;;2.40;2.08;;;17.40;99.90;;;;;;5091437;28;20290;-48
2023/07/30 00:57:48;;;;;;;2.38;2.17;;;17.30;99.90;;;;;;5091958;28;20058;-47
2023/07/30 01:00:13;;;;;;;2.33;2.00;;;17.30;99.90;;;;;;5073580;28;20023;-46
2023/07/30 01:02:39;;;;;;;3.28;2.10;;;17.30;99.90;;;;;;5091833;28;20024;-46
2023/07/30 01:05:05;;;;;;;4.43;2.25;;;17.30;99.90;;;;;;5091524;28;20386;-47
2023/07/30 01:07:31;;;;;;;2.78;2.20;;;17.30;99.90;;;;;;5091958;28;20024;-47
2023/07/30 01:09:57;;;;;;;5.32;2.40;;;17.20;99.90;;;;;;5091593;28;20099;-47
2023/07/30 01:12:23;;;;;;;2.40;1.80;;;17.20;99.90;;;;;;5073381;28;20035;-46
2023/07/30 01:14:50;;;;;;;5.00;1.98;;;17.20;99.90;;;;;;5091387;28;20027;-46
2023/07/30 01:17:16;;;;;;;2.80;2.38;;;17.20;99.90;;;;;;5092105;28;20012;-46
2023/07/30 01:19:41;;;;;;;3.00;2.30;;;17.20;99.90;;;;;;5091764;28;20020;-46
2023/07/30 01:22:07;;;;;;;3.10;2.20;;;17.20;99.90;;;;;;5091435;28;20088;-46
2023/07/30 01:24:32;;;;;;;2.65;2.20;;;17.20;99.90;;;;;;5091160;28;20081;-49
2023/07/30 01:27:05;;;;;;;2.78;2.25;;;17.20;99.90;;;;;;5091528;28;20035;-50
2023/07/30 01:29:41;;;;;;;4.35;2.08;;;17.20;99.90;;;;;;5091376;28;20095;-46
2023/07/30 01:32:10;;;;;;;3.22;2.20;;;17.20;99.90;;;;;;5091221;28;20100;-51
2023/07/30 01:34:37;;;;;;;3.05;2.25;;;17.20;99.90;;;;;;5090710;28;20028;-48
2023/07/30 01:37:05;;;;;;;5.15;2.25;;;17.20;99.90;;;;;;5090875;28;20031;-46
2023/07/30 01:39:32;;;;;;;3.08;2.72;;;17.20;99.90;;;;;;5091159;28;20024;-50
2023/07/30 01:41:58;;;;;;;3.22;2.40;;;17.20;99.90;;;;;;5091264;28;20028;-47
2023/07/30 01:44:23;;;;;;;3.70;2.33;;;17.20;99.90;;;;;;5089565;28;20031;-47
2023/07/30 01:46:49;;;;;;;2.70;2.03;;;17.10;99.90;;;;;;5091052;28;20024;-47
2023/07/30 01:49:14;;;;;;;3.20;2.53;;;17.20;99.90;;;;;;5090936;28;20511;-46
2023/07/30 01:51:40;;;;;;;3.90;2.38;;;17.20;99.90;;;;;;5090792;28;20073;-50
2023/07/30 01:54:05;;;;;;;3.83;2.80;;;17.20;99.90;;;;;;5090640;28;20051;-47
2023/07/30 01:56:31;;;;;;;5.65;2.70;;;17.30;99.90;;;;;;5090718;28;20032;-48
2023/07/30 01:58:56;;;;;;;3.10;2.30;;;17.20;99.90;;;;;;5072748;28;20023;-45
2023/07/30 02:01:22;;;;;;;4.30;2.75;;;17.30;99.90;;;;;;5090864;28;20354;-47
2023/07/30 02:03:48;;;;;;;2.70;2.47;;;17.30;99.90;;;;;;5090318;28;20017;-46
2023/07/30 02:06:14;;;;;;;4.40;2.35;;;17.30;99.90;;;;;;5090654;28;20051;-46
2023/07/30 02:08:39;;;;;;;5.28;2.42;;;17.30;99.90;;;;;;5090537;28;20077;-46
2023/07/30 02:11:04;;;;;;;2.60;2.38;;;17.30;99.90;;;;;;5072523;28;20024;-47
2023/07/30 02:13:30;;;;;;;3.38;2.53;;;17.30;99.90;;;;;;5090495;28;20020;-47
2023/07/30 02:15:55;;;;;;;4.80;2.85;;;17.30;99.90;;;;;;5072267;28;20058;-47
2023/07/30 02:18:21;;;;;;;2.90;2.50;;;17.30;99.90;;;;;;5090459;28;20063;-46
2023/07/30 02:20:47;;;;;;;2.83;2.60;;;17.30;99.90;;;;;;5090267;28;20127;-49
2023/07/30 02:23:15;;;;;;;3.63;2.35;;;17.30;99.90;;;;;;5090223;28;20016;-49
2023/07/30 02:25:40;;;;;;;2.78;2.50;;;17.30;99.90;;;;;;5089650;28;20127;-48
2023/07/30 02:28:05;;;;;;;5.05;2.67;;;17.40;99.90;;;;;;5089836;28;20140;-50
2023/07/30 02:30:33;;;;;;;3.17;2.70;;;17.30;99.90;;;;;;5090260;28;20046;-50
2023/07/30 02:32:59;;;;;;;3.47;2.65;;;17.40;99.90;;;;;;5089516;28;20362;-50
2023/07/30 02:35:24;;;;;;;5.60;2.78;;;17.40;99.90;;;;;;5089416;28;20053;-48
2023/07/30 02:37:50;;;;;;;6.75;2.88;;;17.40;99.90;;;;;;5090336;28;20020;-47
2023/07/30 02:40:15;;;;;;;2.70;2.47;;;17.50;99.90;;;;;;5090354;28;20023;-47
2023/07/30 02:42:41;;;;;;;3.85;2.70;;;17.50;99.90;;;;;;5090325;28;20043;-44
2023/07/30 02:45:06;;;;;;;3.97;2.58;;;17.50;99.90;;;;;;5089663;28;20655;-46
2023/07/30 02:47:32;;;;;;;3.05;2.53;;;17.50;99.90;;;;;;5090136;28;20100;-45
2023/07/30 02:49:57;;;;;;;5.13;3.30;;;17.40;99.90;;;;;;5090138;28;20027;-44
2023/07/30 02:52:23;;;;;;;2.90;2.65;;;17.50;99.90;;;;;;5089921;28;20536;-44
2023/07/30 02:54:48;;;;;;;3.33;3.03;;;17.50;99.90;;;;;;5088976;28;20095;-46
2023/07/30 02:57:14;;;;;;;6.88;2.92;;;17.50;99.90;;;;;;5090171;28;20585;-43
2023/07/30 02:59:40;;;;;;;4.07;3.25;;;17.50;99.90;;;;;;5088454;28;20024;-43
2023/07/30 03:02:06;;;;;;;4.53;3.10;;;17.50;99.90;;;;;;5089128;28;20020;-45
2023/07/30 03:04:51;;;;;;;3.17;2.88;;;17.50;99.90;;;;;;5088405;28;20034;-45
2023/07/30 03:07:18;;;;;;;3.63;2.97;;;17.50;99.90;;;;;;5026356;28;20107;-44
2023/07/30 03:09:43;;;;;;;7.32;3.00;;;17.50;99.90;;;;;;5026103;28;20029;-45
2023/07/30 03:12:09;;;;;;;3.92;2.90;;;17.50;99.90;;;;;;5076763;28;20035;-44
2023/07/30 03:14:34;;;;;;;4.57;3.20;;;17.40;99.90;;;;;;5088954;28;20496;-46
2023/07/30 03:17:00;;;;;;;5.75;3.95;;;17.40;99.90;;;;;;5071061;28;20028;-45
2023/07/30 03:19:25;;;;;;;6.10;3.20;;;17.40;99.90;;;;;;5071130;28;20134;-45
2023/07/30 03:21:51;;;;;;;3.63;3.33;;;17.30;99.90;;;;;;5097581;28;20012;-43
2023/07/30 03:24:16;;;;;;;3.80;3.35;;;17.30;99.90;;;;;;5088600;28;20028;-46
2023/07/30 03:26:42;;;;;;;4.05;3.65;;;17.30;99.90;;;;;;5089130;28;20578;-47
2023/07/30 03:29:07;;;;;;;5.03;3.20;;;17.20;99.90;;;;;;5088501;28;20115;-48
2023/07/30 03:31:33;;;;;;;4.57;3.40;;;17.20;99.90;;;;;;5088865;28;20367;-46
2023/07/30 03:33:58;;;;;;;6.20;4.00;;;17.10;99.90;;;;;;5088084;28;20073;-47
2023/07/30 03:36:24;;;;;;;4.50;3.45;;;17.20;99.90;;;;;;5070760;28;20069;-45
2023/07/30 03:38:49;;;;;;;5.00;3.83;;;17.10;99.90;;;;;;5070780;28;20323;-47
2023/07/30 03:41:15;;;;;;;5.07;3.55;;;17.10;99.90;;;;;;5089389;28;20107;-47
2023/07/30 03:43:40;;;;;;;4.10;3.70;;;17.10;99.90;;;;;;5088728;28;20020;-47
2023/07/30 03:46:06;;;;;;;4.45;3.97;;;17.10;99.90;;;;;;5086771;28;20024;-47
2023/07/30 03:48:31;;;;;;;4.10;3.40;;;17.00;99.90;;;;;;5070917;28;20107;-47
2023/07/30 03:50:57;;;;;;;5.45;4.18;;;17.00;99.90;;;;;;5089053;28;20081;-47
2023/07/30 03:53:23;;;;;;;3.70;3.25;;;17.00;99.90;;;;;;5088388;28;20158;-47
2023/07/30 03:55:48;;;;;;;3.55;3.25;;;16.90;99.90;;;;;;5088701;28;20039;-47
2023/07/30 03:58:14;;;;;;;3.95;3.53;;;16.90;99.90;;;;;;5089258;28;20070;-47
2023/07/30 04:00:40;;;;;;;5.55;3.60;;;16.90;99.90;;;;;;5088856;28;20023;-47
2023/07/30 04:03:05;;;;;;;9.35;4.25;;;16.90;99.90;;;;;;5070578;28;20028;-47
2023/07/30 04:05:31;;;;;;;6.20;3.80;;;16.80;99.90;;;;;;5088614;28;20020;-48
2023/07/30 04:07:56;;;;;;;4.88;3.42;;;16.80;99.90;;;;;;5090824;28;20020;-46
2023/07/30 04:10:22;;;;;;;3.95;3.35;;;16.80;99.90;;;;;;5092895;28;20360;-50
2023/07/30 04:12:48;;;;;;;4.00;2.97;;;16.80;99.90;;;;;;5092995;28;20021;-48
2023/07/30 04:15:15;;;;;;;4.65;3.33;;;16.80;99.90;;;;;;5092312;28;20346;-47
2023/07/30 04:17:41;;;;;;;5.57;3.65;;;16.70;99.90;;;;;;5092594;28;20058;-47
2023/07/30 04:20:09;;;;;;;4.25;3.85;;;16.70;99.90;;;;;;5074167;28;20135;-46
2023/07/30 04:22:35;;;;;;;11.20;3.60;;;16.70;99.90;;;;;;5092387;28;20035;-48
2023/07/30 04:25:00;;;;;;;4.05;3.55;;;16.70;99.90;;;;;;5092400;28;20095;-47
2023/07/30 04:27:26;;;;;;;4.22;3.50;;;16.70;99.90;;;;;;5099537;28;20464;-48
2023/07/30 04:29:51;;;;;;;3.83;3.08;;;16.70;99.90;;;;;;5100304;28;20024;-47
2023/07/30 04:32:17;;;;;;;9.70;3.35;;;16.70;99.90;;;;;;5105158;28;20054;-47
2023/07/30 04:34:42;;;;;;;6.70;3.90;;;16.70;99.90;;;;;;5101235;28;20023;-47
2023/07/30 04:37:08;;;;;;;8.40;3.33;;;16.70;99.90;;;;;;5080216;28;20370;-47
2023/07/30 04:39:34;;;;;;;7.80;3.20;;;16.80;99.90;;;;;;5098468;28;20028;-47
2023/07/30 04:42:00;;;;;;;5.60;3.08;;;16.70;99.90;;;;;;5101119;28;20547;-47
2023/07/30 04:44:25;;;;;;;8.88;3.72;;;16.70;99.90;;;;;;5094963;28;20116;-48
2023/07/30 04:46:51;;;;;;;13.63;3.38;;;16.80;99.90;;;;;;5092296;28;20024;-48
2023/07/30 04:49:16;;;;;;;4.28;2.85;;;16.80;99.90;;;;;;5092098;28;20024;-49
2023/07/30 04:51:42;;;;;;;3.67;2.40;;;16.80;99.90;;;;;;5092024;28;20035;-48
2023/07/30 04:54:07;;;;;;;4.03;3.25;;;16.80;99.90;;;;;;5091657;28;20020;-47
2023/07/30 04:56:33;;;;;;;9.02;3.28;;;16.80;99.90;;;;;;5092333;28;20481;-47
2023/07/30 04:58:59;;;;;;;4.90;3.03;;;16.90;99.90;;;;;;5092109;28;20073;-46
2023/07/30 05:01:25;;;;;;;4.95;3.20;;;16.90;99.90;;;;;;5092039;28;20118;-46
2023/07/30 05:03:50;;;;;;;8.05;3.67;;;16.90;99.90;;;;;;5091902;28;20461;-47
2023/07/30 05:06:16;;;;;;;6.85;3.50;;;16.90;99.90;;;;;;5092193;28;20024;-48
2023/07/30 05:08:41;;;;;;;6.40;3.40;;;16.90;99.90;;;;;;5091821;28;20051;-48
2023/07/30 05:11:07;;;;;;;6.40;3.38;;;16.90;99.90;;;;;;5091859;28;20032;-47
2023/07/30 05:13:33;;;;;;;5.68;3.10;;;16.90;99.90;;;;;;5091286;28;20062;-48
2023/07/30 05:15:58;;;;;;;5.10;3.20;;;17.00;99.90;;;;;;5091565;28;20473;-47
2023/07/30 05:18:24;;;;;;;9.23;3.40;;;17.00;99.90;;;;;;5091249;28;20103;-49
2023/07/30 05:20:49;;;;;;;8.68;2.90;;;16.90;99.90;;;;;;5091561;28;20052;-50
2023/07/30 05:23:15;;;;;;;8.35;2.90;;;17.00;99.90;;;;;;5091799;28;20020;-48
2023/07/30 05:25:41;;;;;;;6.72;3.38;;;17.00;99.90;;;;;;5073334;28;20016;-47
2023/07/30 05:28:06;;;;;;;5.18;3.03;;;17.00;99.90;;;;;;5091670;28;20074;-48
2023/07/30 05:30:32;;;;;;;9.15;3.63;;;17.00;99.90;;;;;;5091443;28;20020;-51
2023/07/30 05:32:57;;;;;;;5.88;2.58;;;17.00;99.90;;;;;;5091240;28;20399;-46
2023/07/30 05:35:23;;;;;;;4.93;3.33;;;17.10;99.90;;;;;;5090835;28;20401;-47
2023/07/30 05:37:48;;;;;;;8.73;4.18;;;17.00;99.90;;;;;;5091224;28;20432;-50
2023/07/30 05:40:14;;;;;;;6.97;3.30;;;17.10;99.90;;;;;;5091105;28;20059;-47
2023/07/30 05:42:39;;;;;;;8.27;3.50;;;17.20;99.90;;;;;;5091071;28;20587;-47
2023/07/30 05:45:05;;;;;;;6.00;2.92;;;17.20;99.90;;;;;;5090744;28;20394;-48
2023/07/30 05:47:31;;;;;;;5.90;3.38;;;17.30;99.90;;;;;;5091479;28;20020;-46
2023/07/30 05:49:56;;;;;;;10.23;3.28;;;17.30;99.90;;;;;;5091028;28;20521;-47
2023/07/30 05:52:22;;;;;;;8.55;3.05;;;17.30;99.90;;;;;;5090082;28;20427;-49
2023/07/30 05:54:47;;;;;;;8.35;3.10;;;17.40;99.90;;;;;;5090193;28;20344;-50
2023/07/30 05:57:13;;;;;;;8.00;2.85;;;17.40;99.90;;;;;;5090358;28;20024;-50
2023/07/30 05:59:38;;;;;;;5.70;3.10;;;17.50;99.90;;;;;;5090828;28;20476;-47
2023/07/30 06:02:04;;;;;;;6.30;3.17;;;17.50;99.90;;;;;;5090615;28;20052;-48
2023/07/30 06:04:30;;;;;;;10.05;3.47;;;17.60;99.90;;;;;;5090531;28;20082;-47
2023/07/30 06:06:57;;;;;;;4.25;3.20;;;17.60;99.90;;;;;;5090488;28;20024;-47
2023/07/30 06:09:23;;;;;;;8.98;3.40;;;17.70;99.90;;;;;;5090273;28;20538;-46
2023/07/30 06:11:49;;;;;;;9.45;4.10;;;17.70;99.90;;;;;;5095864;28;20032;-47
2023/07/30 06:14:14;;;;;;;7.90;3.83;;;17.80;99.90;;;;;;5089953;28;20440;-49
2023/07/30 06:16:40;;;;;;;6.93;4.03;;;17.80;99.90;;;;;;5090769;28;20448;-46
2023/07/30 06:19:05;;;;;;;8.23;4.65;;;17.80;99.90;;;;;;5090560;28;20028;-46
2023/07/30 06:21:30;;;;;;;8.32;5.00;;;17.80;99.90;;;;;;5090797;28;20017;-47
2023/07/30 06:23:56;;;;;;;7.97;4.40;;;17.80;99.90;;;;;;5090093;28;20023;-47
2023/07/30 06:26:21;;;;;;;11.75;4.82;;;17.90;99.90;;;;;;5071915;28;20032;-48
2023/07/30 06:28:47;;;;;;;9.32;4.82;;;18.00;99.90;;;;;;5072130;28;20191;-47
2023/07/30 06:31:12;;;;;;;15.02;5.40;;;18.00;99.90;;;;;;5088354;28;20071;-47
2023/07/30 06:33:38;;;;;;;15.63;5.90;;;18.10;99.90;;;;;;5089370;28;20055;-47
2023/07/30 06:36:04;;;;;;;9.38;5.43;;;18.20;99.90;;;;;;5089973;28;20035;-46
2023/07/30 06:38:29;;;;;;;10.77;5.10;;;18.20;99.90;;;;;;5089829;28;20024;-48
2023/07/30 06:40:57;;;;;;;7.18;4.82;;;18.20;99.90;;;;;;5089533;28;20031;-47
2023/07/30 06:43:23;;;;;;;6.82;4.80;;;18.30;99.90;;;;;;5077164;28;20023;-49
2023/07/30 06:45:49;;;;;;;9.15;4.68;;;18.40;99.90;;;;;;5092795;28;20671;-47
2023/07/30 06:48:15;;;;;;;11.70;5.38;;;18.40;99.90;;;;;;5090745;28;20032;-47
2023/07/30 06:50:41;;;;;;;12.90;5.45;;;18.50;99.90;;;;;;5100309;28;20058;-47
2023/07/30 06:53:07;;;;;;;11.02;5.20;;;18.60;99.90;;;;;;5097137;28;20056;-48
2023/07/30 06:55:32;;;;;;;13.18;5.82;;;18.60;99.90;;;;;;5090630;28;20024;-47
2023/07/30 06:57:58;;;;;;;9.52;4.60;;;18.60;99.90;;;;;;5089148;28;20124;-50
2023/07/30 07:00:23;;;;;;;9.38;5.18;;;18.70;99.90;;;;;;5094574;28;20039;-48
2023/07/30 07:02:49;;;;;;;8.75;4.70;;;18.80;99.90;;;;;;5100253;28;20020;-48
2023/07/30 07:05:15;;;;;;;8.00;4.78;;;18.90;99.90;;;;;;5091882;28;20432;-49
2023/07/30 07:07:40;;;;;;;8.93;4.90;;;19.00;99.90;;;;;;5089799;28;20103;-48
2023/07/30 07:10:06;;;;;;;10.60;4.70;;;18.90;99.90;;;;;;5071432;28;20026;-48
2023/07/30 07:12:32;;;;;;;7.57;4.55;;;19.00;99.90;;;;;;5089219;28;20031;-52
2023/07/30 07:14:58;;;;;;;9.38;4.45;;;19.10;99.90;;;;;;5089244;28;20107;-47
2023/07/30 07:17:24;;;;;;;11.02;4.93;;;19.10;99.90;;;;;;5089629;28;20016;-46
2023/07/30 07:19:49;;;;;;;9.95;4.40;;;19.10;99.90;;;;;;5089368;28;20031;-47
2023/07/30 07:22:17;;;;;;;12.63;4.47;;;19.20;99.90;;;;;;5089061;28;20032;-46
2023/07/30 07:24:44;;;;;;;10.48;4.57;;;19.20;99.90;;;;;;5070755;28;20044;-49
2023/07/30 07:27:09;;;;;;;8.10;4.63;;;19.30;99.90;;;;;;5089274;28;20102;-49
2023/07/30 07:29:35;;;;;;;9.63;4.80;;;19.30;99.90;;;;;;5089331;28;20107;-47
2023/07/30 07:32:00;;;;;;;10.50;5.00;;;19.40;99.90;;;;;;5089165;28;20031;-47
2023/07/30 07:34:26;;;;;;;8.38;4.88;;;19.50;99.90;;;;;;5088791;28;20672;-50
2023/07/30 07:36:51;;;;;;;12.85;4.45;;;19.60;99.90;;;;;;5070925;28;20104;-47
2023/07/30 07:39:18;;;;;;;7.95;4.38;;;19.70;99.90;;;;;;5089112;28;20524;-47
2023/07/30 07:41:43;;;;;;;10.65;4.15;;;19.80;99.90;;;;;;5088960;28;20167;-51
2023/07/30 07:44:09;;;;;;;8.20;4.38;;;19.90;99.90;;;;;;5088782;28;20032;-47
2023/07/30 07:46:34;;;;;;;9.25;4.05;;;20.10;99.90;;;;;;5089114;28;20020;-50
2023/07/30 07:49:00;;;;;;;7.82;4.25;;;20.20;99.90;;;;;;5070887;28;20024;-49
2023/07/30 07:51:25;;;;;;;7.88;3.55;;;20.30;99.90;;;;;;5088948;28;20092;-51
2023/07/30 07:53:51;;;;;;;9.95;3.75;;;20.40;99.90;;;;;;5088750;28;20020;-51
2023/07/30 07:56:16;;;;;;;9.20;3.53;;;20.40;99.90;;;;;;5089463;28;20040;-49
2023/07/30 07:58:43;;;;;;;7.20;4.13;;;20.50;99.90;;;;;;5088890;28;20440;-47
2023/07/30 08:01:08;;;;;;;7.07;3.50;;;20.60;99.90;;;;;;5089409;28;20454;-47
2023/07/30 08:03:34;;;;;;;8.40;3.63;;;20.60;99.90;;;;;;5087382;28;20026;-52
2023/07/30 08:05:59;;;;;;;6.05;3.47;;;20.60;99.90;;;;;;5088994;28;20020;-47
2023/07/30 08:08:26;;;;;;;5.03;3.08;;;20.70;99.90;;;;;;5088801;28;20032;-46
2023/07/30 08:10:51;;;;;;;6.97;3.00;;;21.00;99.90;;;;;;5088887;28;20035;-47
2023/07/30 08:13:17;;;;;;;5.85;3.08;;;21.30;99.90;;;;;;5088550;28;20032;-47
2023/07/30 08:15:42;;;;;;;10.18;2.97;;;21.60;99.90;;;;;;5088824;28;20024;-46
2023/07/30 08:18:08;;;;;;;5.00;2.00;;;21.60;99.60;;;;;;5089405;28;20028;-48
2023/07/30 08:20:34;;;;;;;4.20;2.42;;;21.60;99.40;;;;;;5088638;28;20012;-45
2023/07/30 08:22:59;;;;;;;7.65;2.45;;;21.80;99.20;;;;;;5088492;28;20028;-46
2023/07/30 08:25:26;;;;;;;3.88;2.15;;;21.80;98.40;;;;;;5088313;28;20028;-48
2023/07/30 08:27:51;;;;;;;4.80;2.53;;;22.00;98.50;;;;;;5070453;28;20027;-42
2023/07/30 08:30:17;;;;;;;3.88;2.00;;;21.90;97.40;;;;;;5088891;28;20099;-43
2023/07/30 08:32:43;;;;;;;3.95;2.10;;;22.10;97.50;;;;;;5070587;28;20042;-43
2023/07/30 08:35:09;;;;;;;5.43;2.00;;;22.50;96.70;;;;;;5088179;28;20385;-45
2023/07/30 08:37:35;;;;;;;3.03;2.15;;;23.00;96.90;;;;;;5070123;28;20050;-43
2023/07/30 08:40:00;;;;;;;3.53;1.88;;;23.70;96.10;;;;;;5088544;28;20048;-45
2023/07/30 08:42:26;;;;;;;4.93;1.88;;;24.30;94.50;;;;;;5088382;28;20500;-45
2023/07/30 08:44:51;;;;;;;5.53;1.95;;;24.90;92.80;;;;;;5088373;28;20508;-44
2023/07/30 08:47:17;;;;;;;2.80;1.80;;;25.50;91.90;;;;;;5088344;28;20036;-44
2023/07/30 08:49:42;;;;;;;3.55;1.88;;;25.50;91.00;;;;;;5088272;28;20047;-45
2023/07/30 08:52:09;;;;;;;5.57;1.98;;;26.10;89.20;;;;;;5088305;28;20044;-45
2023/07/30 08:54:36;;;;;;;3.72;1.85;;;26.70;87.80;;;;;;5090694;28;20031;-45
2023/07/30 08:57:03;;;;;;;3.50;1.40;;;27.30;84.60;;;;;;5091962;28;20020;-45
2023/07/30 08:59:36;;;;;;;4.65;1.60;;;27.80;82.00;;;;;;5092010;28;20099;-45
2023/07/30 09:02:02;;;;;;;4.43;1.80;;;27.40;78.60;;;;;;5092106;28;20024;-42
2023/07/30 09:04:30;;;;;;;3.15;1.70;;;27.70;79.10;;;;;;5091187;28;20477;-42
2023/07/30 09:06:55;;;;;;;3.45;1.88;;;28.50;78.00;;;;;;5091850;28;20106;-44
2023/07/30 09:09:21;;;;;;;3.20;1.85;;;28.50;77.70;;;;;;5091850;28;20446;-44
2023/07/30 09:11:53;;;;;;;5.03;1.60;;;29.20;76.30;;;;;;5091789;28;20024;-41
2023/07/30 09:14:20;;;;;;;4.68;1.98;;;29.70;72.80;;;;;;5091011;28;20052;-43
2023/07/30 09:16:46;;;;;;;6.15;2.03;;;30.00;73.80;;;;;;5090540;28;20048;-44
2023/07/30 09:19:19;;;;;;;4.00;1.80;;;30.50;73.60;;;;;;5091758;28;20106;-41
2023/07/30 09:21:45;;;;;;;3.67;1.40;;;30.30;70.00;;;;;;5091437;28;20024;-42
2023/07/30 09:24:10;;;;;;;5.68;1.60;;;30.20;69.70;;;;;;5091105;28;20378;-42
2023/07/30 09:26:43;;;;;;;4.90;1.50;;;30.30;67.70;;;;;;5091693;28;20020;-46
2023/07/30 09:29:09;;;;;;;3.53;1.60;;;29.80;69.70;;;;;;5091361;28;20476;-43
2023/07/30 09:31:54;;;;;;;2.90;1.50;;;29.80;69.70;;;;;;5089773;28;20247;-46
2023/07/30 09:34:20;;;;;;;4.50;1.70;;;30.30;69.10;;;;;;5071012;28;20427;-43
2023/07/30 09:36:47;;;;;;;4.32;1.60;;;29.90;67.30;;;;;;5089377;28;20016;-43
2023/07/30 09:39:21;;;;;;;2.17;1.60;;;30.10;65.70;;;;;;5070884;28;20508;-42
2023/07/30 09:41:46;;;;;;;2.67;1.40;;;30.10;68.60;;;;;;5089756;28;20536;-42
2023/07/30 09:44:13;;;;;;;4.68;1.48;;;30.10;66.10;;;;;;5095762;28;20127;-43
2023/07/30 09:46:48;;;;;;;2.33;1.55;;;30.20;67.80;;;;;;5097610;28;20442;-43
2023/07/30 09:49:15;;;;;;;1.58;1.33;;;30.50;67.00;;;;;;5099944;28;20028;-44
2023/07/30 09:51:40;;;;;;;5.55;1.52;;;30.30;65.40;;;;;;5078424;28;20550;-42
2023/07/30 09:54:11;;;;;;;2.53;1.50;;;30.30;65.80;;;;;;5090054;28;20024;-43
2023/07/30 09:56:38;;;;;;;5.68;1.98;;;30.00;64.40;;;;;;5090758;28;20020;-42
2023/07/30 09:59:05;;;;;;;2.65;1.50;;;30.00;67.50;;;;;;5090840;28;20030;-42
2023/07/30 10:01:32;;;;;;;4.07;1.50;;;30.30;66.40;;;;;;5090658;28;20024;-43
2023/07/30 10:03:58;;;;;;;3.72;1.40;;;30.50;65.50;;;;;;5070637;28;20020;-42
2023/07/30 10:06:27;;;;;;;5.05;1.80;;;30.10;66.70;;;;;;5089437;28;20210;-42
2023/07/30 10:08:55;;;;;;;4.18;1.63;;;29.90;67.70;;;;;;5090382;28;20066;-44
2023/07/30 10:11:21;;;;;;;4.75;1.73;;;29.20;66.20;;;;;;5090367;28;20043;-42
2023/07/30 10:13:47;;;;;;;5.07;2.15;;;28.90;66.40;;;;;;5090040;28;20020;-43
2023/07/30 10:16:13;;;;;;;3.50;1.65;;;29.00;68.90;;;;;;5089818;28;20093;-42
2023/07/30 10:18:43;;;;;;;4.22;1.58;;;28.90;68.10;;;;;;5089621;28;20020;-42
2023/07/30 10:21:10;;;;;;;5.43;1.80;;;28.00;69.40;;;;;;5071580;28;20024;-42
2023/07/30 10:23:45;;;;;;;5.90;1.90;;;27.50;70.40;;;;;;5071006;28;20528;-45
2023/07/30 10:26:10;;;;;;;7.97;2.08;;;27.10;71.50;;;;;;5090285;28;20028;-41
2023/07/30 10:28:38;;;;;;;3.80;1.80;;;26.90;73.70;;;;;;5089471;28;20451;-41
2023/07/30 10:31:09;;;;;;;6.53;1.70;;;26.90;73.40;;;;;;5089933;28;20020;-46
2023/07/30 10:34:06;;;;;;;2.92;1.75;;;26.60;71.80;;;;;;5089602;28;20031;-43
2023/07/30 10:36:44;;;;;;;4.70;2.13;;;26.60;72.80;;;;;;5088256;28;20685;-44
2023/07/30 10:39:25;;;;;;;3.63;2.00;;;26.30;72.70;;;;;;5071306;28;20032;-43
2023/07/30 10:41:54;;;;;;;3.70;1.73;;;26.00;75.00;;;;;;5083083;28;20055;-45
2023/07/30 10:44:24;;;;;;;5.72;1.92;;;25.60;74.60;;;;;;5089636;28;20217;-43
2023/07/30 10:46:50;;;;;;;4.85;2.13;;;25.30;75.80;;;;;;5090171;28;20024;-44
2023/07/30 10:49:16;;;;;;;6.80;2.10;;;24.80;78.30;;;;;;5090398;28;20069;-42
2023/07/30 10:51:42;;;;;;;3.70;1.70;;;24.70;78.00;;;;;;5089427;28;20530;-45
2023/07/30 10:54:08;;;;;;;4.88;1.95;;;24.70;78.50;;;;;;5089396;28;20130;-44
2023/07/30 10:56:38;;;;;;;4.65;2.50;;;24.60;78.00;;;;;;5089892;28;20027;-45
2023/07/30 10:59:07;;;;;;;5.30;1.85;;;24.30;78.00;;;;;;5089808;28;20434;-44
2023/07/30 11:01:38;;;;;;;5.55;2.10;;;23.90;79.70;;;;;;5071590;28;20024;-43
2023/07/30 11:04:23;;;;;;;6.63;2.22;;;23.40;80.60;;;;;;5089191;28;20020;-43
2023/07/30 11:06:51;;;;;;;6.50;2.35;;;23.20;82.00;;;;;;5071520;28;20051;-45
2023/07/30 11:09:22;;;;;;;4.82;2.00;;;23.00;83.20;;;;;;5089664;28;20035;-47
2023/07/30 11:11:49;;;;;;;6.85;2.53;;;22.70;84.10;;;;;;5089754;28;20031;-44
2023/07/30 11:14:25;;;;;;;6.22;2.38;;;22.70;84.20;;;;;;5089436;28;20032;-45
2023/07/30 11:16:53;;;;;;;6.60;2.33;;;22.40;85.20;;;;;;5089045;28;20404;-46
2023/07/30 11:19:19;;;;;;;6.03;2.45;;;22.30;86.80;;;;;;5091400;28;20035;-45
2023/07/30 11:21:45;;;;;;;7.65;2.40;;;22.30;85.50;;;;;;5104840;28;20020;-44
2023/07/30 11:24:11;;;;;;;7.13;1.92;;;22.40;86.00;;;;;;5103193;28;20027;-43
2023/07/30 11:26:36;;;;;;;5.10;2.28;;;22.30;84.90;;;;;;5102773;28;20159;-44
2023/07/30 11:29:17;;;;;;;6.03;2.42;;;22.40;85.60;;;;;;5100055;28;20385;-45
2023/07/30 11:31:44;;;;;;;6.82;2.30;;;22.40;86.10;;;;;;5101605;28;20221;-44
2023/07/30 11:34:11;;;;;;;8.65;1.92;;;22.40;85.60;;;;;;5093471;28;20099;-44
2023/07/30 11:36:37;;;;;;;8.93;2.58;;;22.30;86.20;;;;;;5088929;28;20070;-43
2023/07/30 11:39:03;;;;;;;5.05;2.53;;;22.20;86.40;;;;;;5088983;28;20099;-43
2023/07/30 11:41:29;;;;;;;6.15;2.22;;;22.30;88.50;;;;;;5088416;28;20093;-45
2023/07/30 11:43:55;;;;;;;6.45;2.70;;;22.30;88.40;;;;;;5088147;28;20024;-44
2023/07/30 11:46:22;;;;;;;4.00;2.35;;;22.40;87.80;;;;;;5088927;28;20145;-43
2023/07/30 11:48:49;;;;;;;8.48;2.97;;;22.40;87.40;;;;;;5089009;28;20050;-43
2023/07/30 11:51:24;;;;;;;4.97;1.98;;;22.40;87.30;;;;;;5088904;28;20043;-44
2023/07/30 11:53:53;;;;;;;4.05;1.92;;;22.60;89.10;;;;;;5088555;28;20051;-43
2023/07/30 11:56:21;;;;;;;9.43;3.45;;;22.70;87.30;;;;;;5091772;28;20059;-43
2023/07/30 11:58:48;;;;;;;5.97;2.72;;;22.80;87.10;;;;;;5080830;28;20218;-45
2023/07/30 12:01:15;;;;;;;6.68;2.65;;;22.90;88.00;;;;;;5087441;28;20028;-43
2023/07/30 12:03:41;;;;;;;6.07;2.92;;;22.70;86.60;;;;;;5083230;28;20032;-44
2023/07/30 12:06:08;;;;;;;5.93;2.53;;;22.50;86.70;;;;;;5088737;28;20175;-44
2023/07/30 12:08:35;;;;;;;8.57;3.25;;;22.40;88.30;;;;;;5088290;28;20024;-45
2023/07/30 12:11:05;;;;;;;8.70;3.17;;;22.50;88.90;;;;;;5089217;28;20020;-44
2023/07/30 12:13:32;;;;;;;6.95;3.05;;;23.00;86.90;;;;;;5088500;28;20050;-44
2023/07/30 12:15:58;;;;;;;8.98;3.42;;;23.20;87.10;;;;;;5088447;28;20028;-43
2023/07/30 12:18:25;;;;;;;10.60;3.60;;;23.50;87.80;;;;;;5085654;28;20368;-44
2023/07/30 12:20:51;;;;;;;7.15;3.42;;;23.40;85.60;;;;;;5070629;28;20023;-44
2023/07/30 12:23:18;;;;;;;9.60;3.75;;;23.40;88.00;;;;;;5088441;28;20053;-46
2023/07/30 12:25:45;;;;;;;10.23;3.97;;;23.40;86.90;;;;;;5085477;28;20340;-48
2023/07/30 12:28:11;;;;;;;10.07;4.00;;;23.40;85.80;;;;;;5088497;28;20032;-44
2023/07/30 12:30:36;;;;;;;12.05;4.18;;;23.30;85.80;;;;;;5092314;28;20080;-44
2023/07/30 12:33:05;;;;;;;7.43;4.22;;;23.10;86.10;;;;;;5092327;28;20019;-44
2023/07/30 12:35:51;;;;;;;10.02;4.45;;;23.10;87.20;;;;;;5089212;28;20036;-45
2023/07/30 12:38:16;;;;;;;14.15;4.28;;;22.90;88.60;;;;;;5029301;28;20052;-43
2023/07/30 12:40:42;;;;;;;9.75;4.65;;;22.70;87.70;;;;;;5086839;28;20035;-45
2023/07/30 12:43:08;;;;;;;9.60;4.80;;;23.00;89.70;;;;;;5091988;28;20082;-43